Comanche, Oklahoma
Current Conditions -  °F | °C
As of 9:55 PM on Monday 22 Dec 2014 (Local Time) from KDUC Reporting Station
Overcast Overcast  
Wind Chill: 46°   Ceiling: 12000
Heat Index: 46°   Visibility: NA
Dew Point: 37°   Wind: 0mph
Humidity: 71%   Direction: NA
Pressure: 29.7"   Gusts: NA
Location:  34.37°N, 97.96°W
Report Text: KDUC 230355Z AUTO 00000KT OVC120 08/03 A2970 RMK AO2 PWINO
Loading
Personal Weather Stations






























Interactive Weather Map New forecast layout! Learn more

10-Day Weather Forecast

Advertisements
Track Severe Weather on mobile